sensor_id;sensor_type;location;lat;lon;timestamp;pressure;altitude;pressure_sealevel;temperature;humidity
62011;BME280;47967;51.756;10.174;2023-08-24T04:02:35;99990.44;;;13.95;100.00
62011;BME280;47967;51.756;10.174;2023-08-24T04:06:38;99996.53;;;13.90;100.00
62011;BME280;47967;51.756;10.174;2023-08-24T04:10:41;99992.16;;;13.89;100.00
62011;BME280;47967;51.756;10.174;2023-08-24T04:14:43;99997.75;;;13.95;100.00
62011;BME280;47967;51.756;10.174;2023-08-24T04:18:47;99996.50;;;13.97;100.00
62011;BME280;47967;51.756;10.174;2023-08-24T04:22:50;99992.56;;;13.93;100.00
62011;BME280;47967;51.756;10.174;2023-08-24T04:26:53;99996.72;;;13.96;100.00
62011;BME280;47967;51.756;10.174;2023-08-24T04:30:56;100005.88;;;14.01;100.00
62011;BME280;47967;51.756;10.174;2023-08-24T04:35:00;100011.91;;;14.03;100.00
62011;BME280;47967;51.756;10.174;2023-08-24T04:39:04;100009.38;;;14.08;100.00
62011;BME280;47967;51.756;10.174;2023-08-24T04:43:07;100012.63;;;14.24;100.00
62011;BME280;47967;51.756;10.174;2023-08-24T04:47:10;100015.09;;;14.32;100.00
62011;BME280;47967;51.756;10.174;2023-08-24T04:51:14;100013.56;;;14.43;100.00
62011;BME280;47967;51.756;10.174;2023-08-24T04:55:17;100020.38;;;14.52;100.00
62011;BME280;47967;51.756;10.174;2023-08-24T04:59:19;100004.91;;;14.53;100.00
62011;BME280;47967;51.756;10.174;2023-08-24T05:03:22;100017.94;;;14.76;100.00
62011;BME280;47967;51.756;10.174;2023-08-24T05:07:26;100010.84;;;15.00;100.00
62011;BME280;47967;51.756;10.174;2023-08-24T05:11:29;100002.69;;;15.19;100.00
62011;BME280;47967;51.756;10.174;2023-08-24T05:15:32;99994.31;;;15.39;100.00
62011;BME280;47967;51.756;10.174;2023-08-24T05:19:34;99993.28;;;15.59;100.00
62011;BME280;47967;51.756;10.174;2023-08-24T05:23:38;99997.03;;;15.76;100.00
62011;BME280;47967;51.756;10.174;2023-08-24T05:27:41;99998.22;;;15.80;100.00
62011;BME280;47967;51.756;10.174;2023-08-24T05:31:43;100013.66;;;15.87;100.00
62011;BME280;47967;51.756;10.174;2023-08-24T05:35:46;100005.75;;;15.85;100.00
62011;BME280;47967;51.756;10.174;2023-08-24T05:39:50;99996.41;;;16.11;100.00
62011;BME280;47967;51.756;10.174;2023-08-24T05:43:53;100001.03;;;16.23;100.00
62011;BME280;47967;51.756;10.174;2023-08-24T05:47:56;100011.91;;;16.53;100.00
62011;BME280;47967;51.756;10.174;2023-08-24T05:51:59;100015.78;;;17.11;100.00
62011;BME280;47967;51.756;10.174;2023-08-24T05:56:03;100012.84;;;17.77;100.00
62011;BME280;47967;51.756;10.174;2023-08-24T06:00:06;100025.38;;;18.31;100.00
62011;BME280;47967;51.756;10.174;2023-08-24T06:04:16;100021.19;;;18.75;100.00
62011;BME280;47967;51.756;10.174;2023-08-24T06:08:18;100021.06;;;18.98;100.00
62011;BME280;47967;51.756;10.174;2023-08-24T06:12:22;100023.69;;;19.10;100.00
62011;BME280;47967;51.756;10.174;2023-08-24T06:16:25;100017.78;;;19.18;100.00
62011;BME280;47967;51.756;10.174;2023-08-24T06:20:28;100014.63;;;19.27;100.00
62011;BME280;47967;51.756;10.174;2023-08-24T06:24:31;100005.19;;;19.17;100.00
62011;BME280;47967;51.756;10.174;2023-08-24T06:28:35;100000.91;;;19.04;100.00
62011;BME280;47967;51.756;10.174;2023-08-24T06:32:37;100008.19;;;18.99;100.00
62011;BME280;47967;51.756;10.174;2023-08-24T06:36:40;100005.44;;;18.82;100.00
62011;BME280;47967;51.756;10.174;2023-08-24T06:40:43;99996.44;;;18.98;100.00
62011;BME280;47967;51.756;10.174;2023-08-24T06:44:47;99990.38;;;18.96;100.00
62011;BME280;47967;51.756;10.174;2023-08-24T06:48:51;99981.03;;;18.92;100.00
62011;BME280;47967;51.756;10.174;2023-08-24T06:52:54;99973.56;;;18.87;100.00
62011;BME280;47967;51.756;10.174;2023-08-24T06:56:56;99980.78;;;18.94;100.00
62011;BME280;47967;51.756;10.174;2023-08-24T07:01:00;99988.72;;;18.95;100.00
62011;BME280;47967;51.756;10.174;2023-08-24T07:05:07;99975.66;;;18.97;100.00
62011;BME280;47967;51.756;10.174;2023-08-24T07:09:10;99973.47;;;19.16;100.00
62011;BME280;47967;51.756;10.174;2023-08-24T07:13:13;99977.34;;;19.20;100.00
62011;BME280;47967;51.756;10.174;2023-08-24T07:17:17;99977.03;;;19.17;100.00
62011;BME280;47967;51.756;10.174;2023-08-24T07:21:20;99967.63;;;19.30;100.00
62011;BME280;47967;51.756;10.174;2023-08-24T07:25:23;99968.88;;;19.44;100.00
62011;BME280;47967;51.756;10.174;2023-08-24T07:29:25;99958.34;;;19.53;100.00
62011;BME280;47967;51.756;10.174;2023-08-24T07:33:30;99944.34;;;19.49;100.00
62011;BME280;47967;51.756;10.174;2023-08-24T07:37:32;99944.47;;;19.60;100.00
62011;BME280;47967;51.756;10.174;2023-08-24T07:41:35;99938.63;;;19.78;100.00
62011;BME280;47967;51.756;10.174;2023-08-24T07:45:38;99921.06;;;19.96;100.00
62011;BME280;47967;51.756;10.174;2023-08-24T07:53:46;99914.59;;;20.40;100.00
62011;BME280;47967;51.756;10.174;2023-08-24T07:57:50;99914.41;;;20.47;100.00
62011;BME280;47967;51.756;10.174;2023-08-24T08:01:53;99914.47;;;20.62;100.00
62011;BME280;47967;51.756;10.174;2023-08-24T08:05:57;99921.19;;;20.77;100.00
62011;BME280;47967;51.756;10.174;2023-08-24T08:10:00;99911.72;;;21.00;100.00
62011;BME280;47967;51.756;10.174;2023-08-24T08:14:03;99907.16;;;21.16;100.00
62011;BME280;47967;51.756;10.174;2023-08-24T08:18:06;99898.22;;;21.47;100.00
62011;BME280;47967;51.756;10.174;2023-08-24T08:22:11;99890.09;;;21.88;100.00
62011;BME280;47967;51.756;10.174;2023-08-24T08:26:15;99892.59;;;22.31;100.00
62011;BME280;47967;51.756;10.174;2023-08-24T08:30:18;99882.75;;;22.40;100.00
62011;BME280;47967;51.756;10.174;2023-08-24T08:34:22;99875.81;;;22.58;99.67
62011;BME280;47967;51.756;10.174;2023-08-24T08:38:27;99873.66;;;22.09;100.00
62011;BME280;47967;51.756;10.174;2023-08-24T08:42:30;99869.53;;;22.32;100.00
62011;BME280;47967;51.756;10.174;2023-08-24T08:46:33;99871.06;;;22.95;100.00
62011;BME280;47967;51.756;10.174;2023-08-24T08:50:35;99858.16;;;23.56;97.23
62011;BME280;47967;51.756;10.174;2023-08-24T08:54:39;99858.56;;;23.78;95.06
62011;BME280;47967;51.756;10.174;2023-08-24T08:58:43;99851.59;;;24.26;89.97
62011;BME280;47967;51.756;10.174;2023-08-24T09:02:48;99843.06;;;24.52;88.74
62011;BME280;47967;51.756;10.174;2023-08-24T09:06:52;99843.53;;;24.88;87.13
62011;BME280;47967;51.756;10.174;2023-08-24T09:10:58;99844.31;;;24.94;85.24
62011;BME280;47967;51.756;10.174;2023-08-24T09:15:03;99833.75;;;25.20;82.88
62011;BME280;47967;51.756;10.174;2023-08-24T09:19:10;99833.88;;;25.53;81.77
62011;BME280;47967;51.756;10.174;2023-08-24T09:23:17;99835.81;;;25.72;76.69
62011;BME280;47967;51.756;10.174;2023-08-24T09:27:22;99834.34;;;25.94;74.78
62011;BME280;47967;51.756;10.174;2023-08-24T09:31:35;99839.34;;;26.11;72.00
62011;BME280;47967;51.756;10.174;2023-08-24T09:35:38;99833.25;;;26.28;70.90
62011;BME280;47967;51.756;10.174;2023-08-24T09:39:41;99826.75;;;26.51;69.97
62011;BME280;47967;51.756;10.174;2023-08-24T09:43:45;99833.41;;;26.50;69.89
62011;BME280;47967;51.756;10.174;2023-08-24T09:47:51;99839.69;;;26.70;69.37
62011;BME280;47967;51.756;10.174;2023-08-24T09:51:55;99840.59;;;26.65;70.32
62011;BME280;47967;51.756;10.174;2023-08-24T09:56:00;99832.50;;;26.69;67.46
62011;BME280;47967;51.756;10.174;2023-08-24T10:00:05;99812.66;;;26.81;66.76
62011;BME280;47967;51.756;10.174;2023-08-24T10:04:12;99812.81;;;26.71;66.17
62011;BME280;47967;51.756;10.174;2023-08-24T10:08:17;99808.50;;;26.64;67.99
62011;BME280;47967;51.756;10.174;2023-08-24T10:12:24;99796.53;;;26.55;68.52
62011;BME280;47967;51.756;10.174;2023-08-24T10:16:30;99786.75;;;26.44;67.04
62011;BME280;47967;51.756;10.174;2023-08-24T10:20:33;99787.06;;;26.28;69.08
62011;BME280;47967;51.756;10.174;2023-08-24T10:24:36;99780.44;;;26.43;69.91
62011;BME280;47967;51.756;10.174;2023-08-24T10:28:39;99769.28;;;26.62;67.99
62011;BME280;47967;51.756;10.174;2023-08-24T10:32:44;99756.44;;;26.80;68.07
62011;BME280;47967;51.756;10.174;2023-08-24T10:36:50;99740.53;;;27.00;64.35
62011;BME280;47967;51.756;10.174;2023-08-24T10:40:53;99741.75;;;27.08;62.88
62011;BME280;47967;51.756;10.174;2023-08-24T10:44:56;99735.84;;;27.23;63.12
62011;BME280;47967;51.756;10.174;2023-08-24T10:49:03;99725.47;;;27.29;62.99
62011;BME280;47967;51.756;10.174;2023-08-24T10:53:06;99714.31;;;27.57;62.66
62011;BME280;47967;51.756;10.174;2023-08-24T10:57:18;99698.69;;;27.92;59.95
62011;BME280;47967;51.756;10.174;2023-08-24T11:01:21;99702.47;;;27.96;62.22
62011;BME280;47967;51.756;10.174;2023-08-24T11:05:27;99709.72;;;28.47;59.59
62011;BME280;47967;51.756;10.174;2023-08-24T11:09:45;99710.75;;;28.77;55.96
62011;BME280;47967;51.756;10.174;2023-08-24T11:14:13;99709.97;;;28.85;55.08
62011;BME280;47967;51.756;10.174;2023-08-24T11:18:21;99706.91;;;29.04;53.68
62011;BME280;47967;51.756;10.174;2023-08-24T11:22:26;99712.59;;;29.26;53.42
62011;BME280;47967;51.756;10.174;2023-08-24T11:26:29;99707.06;;;29.52;51.56
62011;BME280;47967;51.756;10.174;2023-08-24T11:30:35;99715.56;;;29.38;48.78
62011;BME280;47967;51.756;10.174;2023-08-24T11:34:38;99724.56;;;29.26;49.95
62011;BME280;47967;51.756;10.174;2023-08-24T11:38:42;99719.47;;;29.19;50.21
62011;BME280;47967;51.756;10.174;2023-08-24T11:42:45;99703.28;;;29.04;47.36
62011;BME280;47967;51.756;10.174;2023-08-24T11:46:47;99710.94;;;28.81;49.84
62011;BME280;47967;51.756;10.174;2023-08-24T11:50:50;99700.91;;;28.62;50.47
62011;BME280;47967;51.756;10.174;2023-08-24T11:54:58;99694.63;;;28.88;48.35
62011;BME280;47967;51.756;10.174;2023-08-24T11:59:01;99689.22;;;28.74;48.78
62011;BME280;47967;51.756;10.174;2023-08-24T12:03:04;99687.91;;;28.89;51.06
62011;BME280;47967;51.756;10.174;2023-08-24T12:07:09;99670.63;;;29.01;50.02
62011;BME280;47967;51.756;10.174;2023-08-24T12:11:17;99663.56;;;29.12;49.15
62011;BME280;47967;51.756;10.174;2023-08-24T12:15:20;99649.84;;;29.16;48.79
62011;BME280;47967;51.756;10.174;2023-08-24T12:19:23;99640.84;;;29.28;48.18
62011;BME280;47967;51.756;10.174;2023-08-24T12:23:26;99642.97;;;29.48;47.61
62011;BME280;47967;51.756;10.174;2023-08-24T12:27:31;99644.28;;;29.51;47.00
62011;BME280;47967;51.756;10.174;2023-08-24T12:31:35;99627.31;;;29.35;49.14
62011;BME280;47967;51.756;10.174;2023-08-24T12:35:38;99631.47;;;29.59;50.37
62011;BME280;47967;51.756;10.174;2023-08-24T12:39:41;99624.19;;;29.93;50.19
62011;BME280;47967;51.756;10.174;2023-08-24T12:43:45;99603.44;;;29.90;50.42
62011;BME280;47967;51.756;10.174;2023-08-24T12:47:48;99602.72;;;30.02;50.01
62011;BME280;47967;51.756;10.174;2023-08-24T12:51:51;99596.31;;;30.10;48.08
62011;BME280;47967;51.756;10.174;2023-08-24T12:55:54;99597.06;;;30.49;46.77
62011;BME280;47967;51.756;10.174;2023-08-24T12:59:58;99591.53;;;30.83;43.50
62011;BME280;47967;51.756;10.174;2023-08-24T13:04:00;99579.25;;;30.84;41.92
62011;BME280;47967;51.756;10.174;2023-08-24T13:08:04;99574.09;;;30.74;43.47
62011;BME280;47967;51.756;10.174;2023-08-24T13:12:07;99563.97;;;30.69;43.42
62011;BME280;47967;51.756;10.174;2023-08-24T13:16:11;99565.91;;;30.47;44.36
62011;BME280;47967;51.756;10.174;2023-08-24T13:20:14;99546.94;;;30.49;44.87
62011;BME280;47967;51.756;10.174;2023-08-24T13:24:16;99548.81;;;30.37;46.19
62011;BME280;47967;51.756;10.174;2023-08-24T13:28:19;99537.81;;;30.61;44.48
62011;BME280;47967;51.756;10.174;2023-08-24T13:32:23;99547.41;;;30.73;43.49
62011;BME280;47967;51.756;10.174;2023-08-24T13:36:26;99546.94;;;30.49;40.35
62011;BME280;47967;51.756;10.174;2023-08-24T13:40:29;99544.16;;;30.49;42.52
62011;BME280;47967;51.756;10.174;2023-08-24T13:44:31;99547.81;;;30.62;43.25
62011;BME280;47967;51.756;10.174;2023-08-24T13:48:35;99554.56;;;30.95;44.10
62011;BME280;47967;51.756;10.174;2023-08-24T13:52:38;99553.84;;;30.98;44.38
62011;BME280;47967;51.756;10.174;2023-08-24T13:56:41;99543.09;;;31.42;44.55
62011;BME280;47967;51.756;10.174;2023-08-24T14:00:43;99550.44;;;31.59;44.41
62011;BME280;47967;51.756;10.174;2023-08-24T14:04:48;99551.97;;;31.82;44.32
62011;BME280;47967;51.756;10.174;2023-08-24T14:08:50;99538.38;;;31.92;44.35
62011;BME280;47967;51.756;10.174;2023-08-24T14:12:53;99530.66;;;32.27;45.29
62011;BME280;47967;51.756;10.174;2023-08-24T14:16:56;99507.94;;;32.40;44.25
62011;BME280;47967;51.756;10.174;2023-08-24T14:21:00;99500.16;;;32.34;44.27
62011;BME280;47967;51.756;10.174;2023-08-24T14:25:04;99490.88;;;32.58;44.97
62011;BME280;47967;51.756;10.174;2023-08-24T14:29:07;99474.25;;;32.49;44.48
62011;BME280;47967;51.756;10.174;2023-08-24T14:33:10;99468.88;;;32.28;44.55
62011;BME280;47967;51.756;10.174;2023-08-24T14:37:14;99466.78;;;32.13;45.03
62011;BME280;47967;51.756;10.174;2023-08-24T14:41:17;99477.69;;;32.43;45.21
62011;BME280;47967;51.756;10.174;2023-08-24T14:45:19;99478.88;;;32.57;45.21
62011;BME280;47967;51.756;10.174;2023-08-24T14:49:22;99468.91;;;32.72;44.34
62011;BME280;47967;51.756;10.174;2023-08-24T14:53:27;99481.16;;;33.28;42.28
62011;BME280;47967;51.756;10.174;2023-08-24T14:57:30;99470.69;;;33.89;41.65
62011;BME280;47967;51.756;10.174;2023-08-24T15:01:33;99479.94;;;33.93;41.32
62011;BME280;47967;51.756;10.174;2023-08-24T15:05:43;99492.44;;;33.64;40.99
62011;BME280;47967;51.756;10.174;2023-08-24T15:09:47;99502.66;;;33.24;42.28
62011;BME280;47967;51.756;10.174;2023-08-24T15:13:52;99512.28;;;33.75;41.83
62011;BME280;47967;51.756;10.174;2023-08-24T15:17:55;99512.66;;;33.73;41.25
62011;BME280;47967;51.756;10.174;2023-08-24T15:21:58;99493.09;;;33.25;42.94
62011;BME280;47967;51.756;10.174;2023-08-24T15:26:02;99479.75;;;33.34;42.88
62011;BME280;47967;51.756;10.174;2023-08-24T15:30:06;99471.34;;;33.02;43.18
62011;BME280;47967;51.756;10.174;2023-08-24T15:34:10;99467.66;;;33.46;43.25
62011;BME280;47967;51.756;10.174;2023-08-24T15:38:13;99453.03;;;33.05;43.62
62011;BME280;47967;51.756;10.174;2023-08-24T15:42:17;99447.25;;;33.14;44.54
62011;BME280;47967;51.756;10.174;2023-08-24T15:46:20;99452.06;;;32.97;44.37
62011;BME280;47967;51.756;10.174;2023-08-24T15:50:23;99450.50;;;32.84;44.31
62011;BME280;47967;51.756;10.174;2023-08-24T15:54:25;99441.09;;;32.76;44.73
62011;BME280;47967;51.756;10.174;2023-08-24T15:58:30;99435.50;;;32.76;44.98
62011;BME280;47967;51.756;10.174;2023-08-24T16:02:33;99419.41;;;32.41;46.26
62011;BME280;47967;51.756;10.174;2023-08-24T16:06:36;99412.91;;;31.96;48.27
62011;BME280;47967;51.756;10.174;2023-08-24T16:10:39;99406.91;;;31.82;49.30
62011;BME280;47967;51.756;10.174;2023-08-24T16:14:44;99387.41;;;31.69;50.22
62011;BME280;47967;51.756;10.174;2023-08-24T16:18:47;99381.16;;;31.35;51.80
62011;BME280;47967;51.756;10.174;2023-08-24T16:22:49;99379.50;;;30.97;53.31
62011;BME280;47967;51.756;10.174;2023-08-24T16:26:52;99368.13;;;30.77;54.65
62011;BME280;47967;51.756;10.174;2023-08-24T16:30:56;99363.69;;;30.64;54.69
62011;BME280;47967;51.756;10.174;2023-08-24T16:34:59;99350.50;;;30.40;54.77
62011;BME280;47967;51.756;10.174;2023-08-24T16:39:01;99365.16;;;29.94;57.04
62011;BME280;47967;51.756;10.174;2023-08-24T16:43:04;99377.75;;;29.49;60.24
62011;BME280;47967;51.756;10.174;2023-08-24T16:47:08;99381.13;;;29.25;61.52
62011;BME280;47967;51.756;10.174;2023-08-24T16:51:11;99383.09;;;28.95;63.60
62011;BME280;47967;51.756;10.174;2023-08-24T16:55:14;99370.41;;;28.67;64.81
62011;BME280;47967;51.756;10.174;2023-08-24T16:59:17;99372.13;;;28.42;67.10
62011;BME280;47967;51.756;10.174;2023-08-24T17:03:21;99376.84;;;28.33;67.99
62011;BME280;47967;51.756;10.174;2023-08-24T17:07:24;99369.19;;;28.21;69.02
62011;BME280;47967;51.756;10.174;2023-08-24T17:11:28;99360.06;;;28.20;70.11
62011;BME280;47967;51.756;10.174;2023-08-24T17:15:30;99358.75;;;28.26;71.15
62011;BME280;47967;51.756;10.174;2023-08-24T17:19:34;99349.31;;;28.19;74.66
62011;BME280;47967;51.756;10.174;2023-08-24T17:23:37;99361.22;;;28.10;76.81
62011;BME280;47967;51.756;10.174;2023-08-24T17:27:40;99356.31;;;27.99;75.62
62011;BME280;47967;51.756;10.174;2023-08-24T17:31:42;99355.53;;;27.89;75.99
62011;BME280;47967;51.756;10.174;2023-08-24T17:35:47;99349.63;;;27.73;80.10
62011;BME280;47967;51.756;10.174;2023-08-24T17:39:49;99351.56;;;27.46;81.86
62011;BME280;47967;51.756;10.174;2023-08-24T17:43:53;99351.03;;;27.36;82.37
62011;BME280;47967;51.756;10.174;2023-08-24T17:47:56;99343.19;;;27.29;80.47
62011;BME280;47967;51.756;10.174;2023-08-24T17:52:00;99326.41;;;27.34;79.98
62011;BME280;47967;51.756;10.174;2023-08-24T17:56:04;99310.63;;;27.35;79.16
62011;BME280;47967;51.756;10.174;2023-08-24T18:00:07;99318.09;;;27.25;77.47
62011;BME280;47967;51.756;10.174;2023-08-24T18:04:11;99305.81;;;27.00;77.97
62011;BME280;47967;51.756;10.174;2023-08-24T18:08:15;99300.59;;;26.90;78.31
62011;BME280;47967;51.756;10.174;2023-08-24T18:12:18;99303.28;;;26.72;79.48
62011;BME280;47967;51.756;10.174;2023-08-24T18:16:20;99309.41;;;26.60;89.75
62011;BME280;47967;51.756;10.174;2023-08-24T18:20:23;99311.59;;;26.41;89.27
62011;BME280;47967;51.756;10.174;2023-08-24T18:24:27;99319.00;;;26.31;87.57
62011;BME280;47967;51.756;10.174;2023-08-24T18:28:30;99319.16;;;26.26;88.79
62011;BME280;47967;51.756;10.174;2023-08-24T18:32:33;99319.09;;;26.17;89.82
62011;BME280;47967;51.756;10.174;2023-08-24T18:36:36;99312.16;;;26.06;95.36
62011;BME280;47967;51.756;10.174;2023-08-24T18:40:41;99311.72;;;25.90;98.29
62011;BME280;47967;51.756;10.174;2023-08-24T18:44:47;99308.28;;;25.84;95.26
62011;BME280;47967;51.756;10.174;2023-08-24T18:48:50;99293.94;;;25.82;97.11
62011;BME280;47967;51.756;10.174;2023-08-24T18:52:52;99292.31;;;25.59;94.76
62011;BME280;47967;51.756;10.174;2023-08-24T18:56:56;99290.50;;;25.40;97.96
62011;BME280;47967;51.756;10.174;2023-08-24T19:01:02;99296.78;;;25.18;100.00
62011;BME280;47967;51.756;10.174;2023-08-24T19:05:06;99302.09;;;25.14;100.00
62011;BME280;47967;51.756;10.174;2023-08-24T19:09:10;99300.78;;;25.12;100.00
62011;BME280;47967;51.756;10.174;2023-08-24T19:13:15;99292.94;;;25.05;100.00
62011;BME280;47967;51.756;10.174;2023-08-24T19:17:17;99289.34;;;25.04;100.00
62011;BME280;47967;51.756;10.174;2023-08-24T19:21:20;99270.72;;;24.96;100.00
62011;BME280;47967;51.756;10.174;2023-08-24T19:25:27;99273.59;;;24.91;100.00
62011;BME280;47967;51.756;10.174;2023-08-24T19:29:31;99279.44;;;24.89;100.00
62011;BME280;47967;51.756;10.174;2023-08-24T19:33:33;99284.25;;;24.98;100.00
62011;BME280;47967;51.756;10.174;2023-08-24T19:37:36;99285.38;;;24.69;100.00
62011;BME280;47967;51.756;10.174;2023-08-24T19:41:39;99287.00;;;24.70;100.00
62011;BME280;47967;51.756;10.174;2023-08-24T19:46:00;99281.50;;;24.70;100.00
62011;BME280;47967;51.756;10.174;2023-08-24T19:50:04;99274.66;;;24.67;100.00
62011;BME280;47967;51.756;10.174;2023-08-24T19:54:07;99271.56;;;24.55;100.00
62011;BME280;47967;51.756;10.174;2023-08-24T19:58:10;99261.13;;;24.52;100.00
62011;BME280;47967;51.756;10.174;2023-08-24T20:02:14;99263.16;;;24.46;100.00
62011;BME280;47967;51.756;10.174;2023-08-24T20:06:21;99251.22;;;24.51;100.00
62011;BME280;47967;51.756;10.174;2023-08-24T20:10:24;99254.03;;;24.18;100.00
62011;BME280;47967;51.756;10.174;2023-08-24T20:14:27;99249.25;;;23.90;100.00
62011;BME280;47967;51.756;10.174;2023-08-24T20:18:31;99248.09;;;23.77;100.00
62011;BME280;47967;51.756;10.174;2023-08-24T20:22:34;99250.81;;;23.63;100.00
62011;BME280;47967;51.756;10.174;2023-08-24T20:26:36;99228.13;;;23.86;100.00
62011;BME280;47967;51.756;10.174;2023-08-24T20:30:40;99224.72;;;23.75;100.00
62011;BME280;47967;51.756;10.174;2023-08-24T20:34:44;99231.53;;;23.63;100.00
62011;BME280;47967;51.756;10.174;2023-08-24T20:38:46;99221.66;;;23.43;100.00
62011;BME280;47967;51.756;10.174;2023-08-24T20:42:49;99223.28;;;23.44;100.00
62011;BME280;47967;51.756;10.174;2023-08-24T20:46:52;99227.06;;;23.48;100.00
62011;BME280;47967;51.756;10.174;2023-08-24T20:50:56;99220.13;;;23.70;100.00
62011;BME280;47967;51.756;10.174;2023-08-24T20:54:59;99213.81;;;23.50;100.00
62011;BME280;47967;51.756;10.174;2023-08-24T20:59:01;99217.88;;;23.39;100.00
